Time;durP1;ratioP1;P1;durP2;ratioP2;P2;SDS_P1;SDS_P2;PMS_P1;PMS_P2;Temp;Humidity;BMP_temperature;BMP_pressure;BME280_temperature;BME280_humidity;BME280_pressure;Samples;Min_cycle;Max_cycle;Signal;HPM_P1;HPM_P2
2024/02/26 00:00:46;;;;;;;7.30;3.75;;;5.60;46.20;;;;;;5073160;28;20190;-67
2024/02/26 00:03:15;;;;;;;5.55;3.35;;;5.60;46.50;;;;;;5074164;28;20205;-67
2024/02/26 00:05:42;;;;;;;3.85;2.35;;;5.60;46.50;;;;;;5074035;28;20186;-67
2024/02/26 00:08:09;;;;;;;8.25;3.65;;;5.60;46.70;;;;;;5073928;28;20217;-67
2024/02/26 00:10:36;;;;;;;8.50;3.70;;;5.60;46.90;;;;;;5073969;28;20277;-67
2024/02/26 00:13:03;;;;;;;4.75;3.17;;;5.60;47.10;;;;;;5073928;28;20237;-67
2024/02/26 00:15:30;;;;;;;5.32;3.90;;;5.50;47.20;;;;;;5073911;28;20277;-68
2024/02/26 00:17:59;;;;;;;7.53;4.50;;;5.50;47.30;;;;;;5073511;28;20293;-67
2024/02/26 00:20:26;;;;;;;5.88;3.97;;;5.40;47.10;;;;;;5073928;28;20233;-68
2024/02/26 00:22:53;;;;;;;8.50;4.10;;;5.40;47.60;;;;;;5073628;28;20322;-68
2024/02/26 00:25:20;;;;;;;7.93;4.55;;;5.30;47.70;;;;;;5073680;28;20190;-68
2024/02/26 00:27:47;;;;;;;6.65;3.97;;;5.30;47.80;;;;;;5073714;28;20222;-68
2024/02/26 00:30:14;;;;;;;6.25;4.13;;;5.30;47.90;;;;;;5073804;28;20268;-68
2024/02/26 00:32:41;;;;;;;8.23;3.80;;;5.30;48.00;;;;;;5073457;28;20243;-68
2024/02/26 00:35:10;;;;;;;6.72;4.10;;;5.30;48.20;;;;;;5073639;28;20230;-68
2024/02/26 00:37:37;;;;;;;6.70;4.65;;;5.30;47.80;;;;;;5073398;28;20190;-68
2024/02/26 00:40:06;;;;;;;7.53;4.43;;;5.20;48.00;;;;;;5073275;28;20716;-68
2024/02/26 00:42:33;;;;;;;6.40;3.80;;;5.20;48.10;;;;;;5073476;28;20222;-68
2024/02/26 00:45:00;;;;;;;7.15;4.15;;;5.20;48.20;;;;;;5073540;28;20218;-67
2024/02/26 00:47:27;;;;;;;7.32;4.10;;;5.20;48.30;;;;;;5073708;28;20293;-68
2024/02/26 00:49:54;;;;;;;5.22;3.92;;;5.20;47.90;;;;;;5073575;28;20552;-68
2024/02/26 00:52:23;;;;;;;7.45;4.45;;;5.10;48.00;;;;;;5073229;28;20194;-68
2024/02/26 00:54:50;;;;;;;7.90;4.03;;;5.10;48.30;;;;;;5073479;28;20288;-68
2024/02/26 00:57:17;;;;;;;6.75;3.88;;;5.10;48.40;;;;;;5073482;28;20229;-68
2024/02/26 00:59:44;;;;;;;7.78;3.20;;;5.10;48.30;;;;;;5073463;28;20281;-68
2024/02/26 01:02:11;;;;;;;10.00;3.78;;;5.00;49.00;;;;;;5073442;28;20225;-67
2024/02/26 01:04:38;;;;;;;7.07;4.30;;;5.10;48.80;;;;;;5073392;28;20218;-67
2024/02/26 01:07:05;;;;;;;6.20;4.07;;;5.00;48.80;;;;;;5073594;28;20197;-68
2024/02/26 01:09:33;;;;;;;7.55;4.13;;;5.10;48.90;;;;;;5073373;28;20569;-68
2024/02/26 01:12:02;;;;;;;7.40;3.97;;;5.10;48.90;;;;;;5075383;28;20202;-68
2024/02/26 01:14:29;;;;;;;5.68;3.60;;;5.00;48.80;;;;;;5077048;28;20233;-68
2024/02/26 01:16:56;;;;;;;7.38;3.58;;;5.00;49.00;;;;;;5077292;28;20197;-68
2024/02/26 01:19:23;;;;;;;7.30;4.25;;;4.90;49.20;;;;;;5077169;28;20235;-68
2024/02/26 01:21:50;;;;;;;4.97;3.45;;;5.00;49.40;;;;;;5077495;28;20186;-68
2024/02/26 01:24:17;;;;;;;6.47;3.90;;;5.00;49.30;;;;;;5077149;28;20640;-68
2024/02/26 01:26:45;;;;;;;5.30;3.15;;;5.00;48.90;;;;;;5077004;28;20187;-67
2024/02/26 01:29:13;;;;;;;7.05;3.00;;;5.00;48.90;;;;;;5077058;28;20276;-67
2024/02/26 01:31:40;;;;;;;4.78;3.47;;;5.00;48.90;;;;;;5077064;28;20282;-68
2024/02/26 01:34:07;;;;;;;5.40;3.33;;;4.90;49.00;;;;;;5077109;28;20687;-68
2024/02/26 01:36:34;;;;;;;5.55;3.30;;;4.80;49.10;;;;;;5076966;28;20273;-68
2024/02/26 01:39:03;;;;;;;7.57;3.03;;;4.80;49.40;;;;;;5076446;28;20679;-68
2024/02/26 01:41:30;;;;;;;4.90;2.55;;;4.80;49.60;;;;;;5076267;28;20230;-67
2024/02/26 01:43:58;;;;;;;4.45;3.08;;;4.90;49.60;;;;;;5076347;28;20214;-67
2024/02/26 01:46:26;;;;;;;4.25;2.88;;;4.90;49.30;;;;;;5076773;28;20525;-67
2024/02/26 01:48:53;;;;;;;4.03;2.35;;;4.80;49.20;;;;;;5076717;28;20285;-68
2024/02/26 01:51:21;;;;;;;4.72;2.95;;;4.80;49.20;;;;;;5076571;28;20548;-67
2024/02/26 01:53:49;;;;;;;5.95;4.07;;;4.80;49.30;;;;;;5076196;28;20214;-68
2024/02/26 01:56:18;;;;;;;5.15;2.83;;;4.80;49.20;;;;;;5076098;28;20190;-68
2024/02/26 01:58:45;;;;;;;6.85;3.58;;;4.80;49.20;;;;;;5076487;28;20235;-68
2024/02/26 02:01:14;;;;;;;5.50;2.60;;;4.80;49.50;;;;;;5076106;28;20240;-69
2024/02/26 02:03:41;;;;;;;5.03;2.88;;;4.80;49.90;;;;;;5076243;28;20305;-67
2024/02/26 02:06:10;;;;;;;4.88;2.80;;;4.80;50.20;;;;;;5076003;28;20671;-67
2024/02/26 02:08:38;;;;;;;4.40;2.42;;;4.80;49.60;;;;;;5076342;28;20225;-68
2024/02/26 02:11:05;;;;;;;5.40;2.60;;;4.80;49.30;;;;;;5075902;28;20277;-68
2024/02/26 02:13:33;;;;;;;4.40;2.42;;;4.80;49.30;;;;;;5076469;28;20194;-68
2024/02/26 02:16:00;;;;;;;5.30;2.35;;;4.70;49.40;;;;;;5076303;28;20272;-67
2024/02/26 02:18:28;;;;;;;4.18;1.95;;;4.70;49.90;;;;;;5076137;28;20190;-68
2024/02/26 02:20:59;;;;;;;3.88;2.25;;;4.80;49.80;;;;;;5076024;28;20699;-68
2024/02/26 02:23:27;;;;;;;3.90;2.20;;;4.80;49.70;;;;;;5075781;28;20548;-68
2024/02/26 02:25:54;;;;;;;4.40;2.80;;;4.70;49.60;;;;;;5076185;28;20197;-68
2024/02/26 02:28:22;;;;;;;7.90;2.22;;;4.60;49.60;;;;;;5075587;28;20671;-68
2024/02/26 02:30:50;;;;;;;3.20;1.70;;;4.70;49.80;;;;;;5075915;28;20194;-68
2024/02/26 02:33:17;;;;;;;3.85;2.25;;;4.60;49.70;;;;;;5075949;28;20229;-68
2024/02/26 02:35:45;;;;;;;5.90;2.25;;;4.50;49.80;;;;;;5075899;28;20684;-69
2024/02/26 02:38:13;;;;;;;4.18;2.00;;;4.50;50.00;;;;;;5075680;28;20191;-67
2024/02/26 02:40:40;;;;;;;5.30;2.67;;;4.50;50.30;;;;;;5075696;28;20552;-67
2024/02/26 02:43:08;;;;;;;3.25;2.20;;;4.50;50.40;;;;;;5075124;28;20309;-66
2024/02/26 02:45:35;;;;;;;3.78;1.90;;;4.50;50.50;;;;;;5075762;28;20607;-67
2024/02/26 02:48:02;;;;;;;4.57;1.90;;;4.50;50.70;;;;;;5075336;28;20244;-68
2024/02/26 02:50:29;;;;;;;2.53;1.40;;;4.50;50.50;;;;;;5075212;28;20702;-68
2024/02/26 02:52:56;;;;;;;4.43;2.40;;;4.40;50.80;;;;;;5075479;28;20552;-68
2024/02/26 02:55:25;;;;;;;4.05;2.42;;;4.40;51.50;;;;;;5075368;28;20201;-68
2024/02/26 02:57:52;;;;;;;3.28;1.80;;;4.40;51.00;;;;;;5075774;28;20193;-68
2024/02/26 03:00:19;;;;;;;4.47;2.17;;;4.40;51.20;;;;;;5075378;28;20201;-68
2024/02/26 03:02:46;;;;;;;3.75;2.25;;;4.40;51.40;;;;;;5075213;28;20605;-68
2024/02/26 03:05:13;;;;;;;3.33;1.80;;;4.50;51.50;;;;;;5075218;28;20256;-68
2024/02/26 03:07:40;;;;;;;3.83;2.00;;;4.50;51.30;;;;;;5075205;28;20286;-68
2024/02/26 03:10:08;;;;;;;7.97;1.77;;;4.50;51.50;;;;;;5075116;28;20206;-68
2024/02/26 03:12:36;;;;;;;4.72;1.88;;;4.40;50.90;;;;;;5074769;28;20186;-68
2024/02/26 03:15:04;;;;;;;6.43;1.95;;;4.40;50.90;;;;;;5074686;28;20225;-68
2024/02/26 03:17:31;;;;;;;2.97;1.35;;;4.40;51.00;;;;;;5074921;28;20288;-68
2024/02/26 03:19:58;;;;;;;2.50;1.40;;;4.40;51.10;;;;;;5075123;28;20198;-67
2024/02/26 03:22:25;;;;;;;2.55;1.60;;;4.40;51.30;;;;;;5074592;28;20598;-67
2024/02/26 03:24:52;;;;;;;3.38;2.00;;;4.40;51.60;;;;;;5074799;28;20309;-68
2024/02/26 03:27:19;;;;;;;4.25;2.40;;;4.40;52.00;;;;;;5074426;28;20276;-66
2024/02/26 03:29:48;;;;;;;2.63;1.25;;;4.40;51.70;;;;;;5074355;28;20187;-66
2024/02/26 03:32:15;;;;;;;3.05;1.60;;;4.40;51.00;;;;;;5074706;28;20301;-67
2024/02/26 03:34:42;;;;;;;3.50;1.70;;;4.40;50.90;;;;;;5073494;28;20284;-67
2024/02/26 03:37:10;;;;;;;2.50;1.27;;;4.30;51.00;;;;;;5074425;28;20611;-67
2024/02/26 03:39:37;;;;;;;3.33;1.50;;;4.30;51.10;;;;;;5074416;28;20210;-67
2024/02/26 03:42:05;;;;;;;3.95;1.50;;;4.30;51.30;;;;;;5074153;28;20571;-67
2024/02/26 03:44:32;;;;;;;3.00;1.88;;;4.20;51.50;;;;;;5074002;28;20218;-67
2024/02/26 03:47:01;;;;;;;3.60;2.22;;;4.20;51.60;;;;;;5074386;28;20194;-67
2024/02/26 03:49:27;;;;;;;3.00;1.55;;;4.20;51.90;;;;;;5073971;28;20200;-67
2024/02/26 03:51:54;;;;;;;3.45;1.55;;;4.20;52.00;;;;;;5073976;28;20289;-67
2024/02/26 03:54:21;;;;;;;2.53;1.33;;;4.30;52.00;;;;;;5074392;28;20297;-67
2024/02/26 03:56:48;;;;;;;2.60;1.42;;;4.30;51.80;;;;;;5074267;28;20193;-67
2024/02/26 03:59:16;;;;;;;3.83;1.80;;;4.30;51.60;;;;;;5074306;28;20220;-67
2024/02/26 04:01:47;;;;;;;4.88;1.95;;;4.20;51.40;;;;;;5073806;28;20637;-67
2024/02/26 04:04:15;;;;;;;3.10;1.48;;;4.20;51.90;;;;;;5074152;28;20202;-67
2024/02/26 04:06:45;;;;;;;3.72;1.85;;;4.20;52.00;;;;;;5074122;28;20296;-67
2024/02/26 04:09:13;;;;;;;3.35;1.80;;;4.20;52.10;;;;;;5074638;28;20599;-67
2024/02/26 04:11:40;;;;;;;2.83;1.50;;;4.20;52.00;;;;;;5074058;28;20202;-67
2024/02/26 04:14:08;;;;;;;2.95;1.30;;;4.20;52.20;;;;;;5074035;28;20259;-67
2024/02/26 04:16:35;;;;;;;3.65;1.98;;;4.20;52.40;;;;;;5073970;28;20606;-67
2024/02/26 04:19:02;;;;;;;2.88;1.65;;;4.20;52.40;;;;;;5074016;28;20226;-67
2024/02/26 04:21:30;;;;;;;2.53;1.48;;;4.20;52.60;;;;;;5073921;28;20229;-67
2024/02/26 04:24:00;;;;;;;3.45;2.13;;;4.20;52.40;;;;;;5073934;28;20297;-68
2024/02/26 04:26:27;;;;;;;4.97;2.10;;;4.20;52.50;;;;;;5074064;28;20186;-67
2024/02/26 04:28:54;;;;;;;5.32;2.97;;;4.20;52.60;;;;;;5073729;28;20690;-67
2024/02/26 04:31:21;;;;;;;3.72;2.15;;;4.10;52.90;;;;;;5073498;28;20209;-67
2024/02/26 04:33:48;;;;;;;3.30;2.20;;;4.10;53.20;;;;;;5073307;28;20229;-67
2024/02/26 04:36:16;;;;;;;4.60;1.90;;;4.10;53.30;;;;;;5073481;28;20662;-67
2024/02/26 04:38:44;;;;;;;3.90;2.20;;;4.20;53.50;;;;;;5073646;28;20198;-67
2024/02/26 04:41:11;;;;;;;3.58;1.85;;;4.20;53.60;;;;;;5073179;28;20192;-67
2024/02/26 04:43:41;;;;;;;3.13;1.85;;;4.30;53.70;;;;;;5073971;28;20210;-67
2024/02/26 04:46:09;;;;;;;4.07;2.42;;;4.30;53.20;;;;;;5073242;28;20196;-67
2024/02/26 04:48:36;;;;;;;6.57;3.72;;;4.20;53.30;;;;;;5073223;28;20197;-68
2024/02/26 04:51:04;;;;;;;8.95;3.03;;;4.30;53.40;;;;;;5073598;28;20198;-67
2024/02/26 04:53:31;;;;;;;6.10;3.22;;;4.20;53.30;;;;;;5073217;28;20194;-67
2024/02/26 04:55:59;;;;;;;3.80;2.22;;;4.30;53.70;;;;;;5073166;28;20285;-67
2024/02/26 04:58:26;;;;;;;3.15;2.00;;;4.30;53.30;;;;;;5073203;28;20225;-67
2024/02/26 05:00:53;;;;;;;3.58;1.83;;;4.30;52.90;;;;;;5073189;28;20664;-67
2024/02/26 05:03:20;;;;;;;4.68;2.38;;;4.30;52.80;;;;;;5073100;28;20233;-67
2024/02/26 05:05:47;;;;;;;7.85;3.55;;;4.30;52.90;;;;;;5073266;28;20264;-67
2024/02/26 05:08:14;;;;;;;5.63;2.80;;;4.30;52.80;;;;;;5073456;28;20190;-67
2024/02/26 05:10:43;;;;;;;3.00;1.75;;;4.30;52.80;;;;;;5073667;28;20229;-67
2024/02/26 05:13:11;;;;;;;4.70;1.60;;;4.20;53.00;;;;;;5073067;28;20648;-67
2024/02/26 05:15:38;;;;;;;3.88;2.63;;;4.20;53.10;;;;;;5073312;28;20281;-67
2024/02/26 05:18:07;;;;;;;7.90;4.63;;;4.20;53.50;;;;;;5073008;28;20235;-66
2024/02/26 05:20:35;;;;;;;3.05;2.45;;;4.20;53.80;;;;;;5073247;28;20242;-67
2024/02/26 05:23:03;;;;;;;4.95;2.55;;;4.20;53.80;;;;;;5073278;28;20348;-67
2024/02/26 05:25:31;;;;;;;4.03;2.50;;;4.30;53.90;;;;;;5073124;28;20567;-66
2024/02/26 05:28:00;;;;;;;3.75;1.90;;;4.30;53.50;;;;;;5072610;28;20206;-67
2024/02/26 05:30:28;;;;;;;3.70;2.15;;;4.30;53.90;;;;;;5073477;28;20190;-67
2024/02/26 05:32:56;;;;;;;3.17;1.67;;;4.30;53.70;;;;;;5073374;28;20191;-67
2024/02/26 05:35:28;;;;;;;4.18;2.38;;;4.30;53.50;;;;;;5070481;28;20286;-67
2024/02/26 05:37:55;;;;;;;3.65;1.90;;;4.30;53.50;;;;;;5075596;28;20189;-66
2024/02/26 05:40:26;;;;;;;5.72;2.00;;;4.30;53.50;;;;;;5076995;28;20198;-67
2024/02/26 05:42:54;;;;;;;6.30;2.40;;;4.30;53.50;;;;;;5074374;28;20265;-66
2024/02/26 05:45:23;;;;;;;6.25;1.95;;;4.30;53.70;;;;;;5073563;28;20217;-67
2024/02/26 05:47:52;;;;;;;4.30;2.35;;;4.30;53.80;;;;;;5072870;28;20209;-66
2024/02/26 05:50:19;;;;;;;6.47;2.70;;;4.30;54.00;;;;;;5072627;28;20236;-66
2024/02/26 05:52:46;;;;;;;3.53;1.85;;;4.30;54.00;;;;;;5072596;28;20224;-68
2024/02/26 05:55:13;;;;;;;4.97;1.70;;;4.40;53.90;;;;;;5072947;28;20621;-67
2024/02/26 05:57:40;;;;;;;5.13;1.33;;;4.30;54.40;;;;;;5072960;28;20190;-67
2024/02/26 06:00:08;;;;;;;2.78;1.70;;;4.30;54.10;;;;;;5076058;28;20186;-67
2024/02/26 06:02:35;;;;;;;4.82;1.60;;;4.40;54.10;;;;;;5076373;28;20193;-67
2024/02/26 06:05:05;;;;;;;2.70;1.50;;;4.40;54.20;;;;;;5076317;28;20707;-67
2024/02/26 06:07:34;;;;;;;4.00;1.77;;;4.40;54.30;;;;;;5076462;28;20190;-67
2024/02/26 06:10:02;;;;;;;3.25;1.45;;;4.40;54.40;;;;;;5076524;28;20182;-67
2024/02/26 06:12:30;;;;;;;3.03;1.35;;;4.50;54.70;;;;;;5074872;28;20273;-67
2024/02/26 06:14:57;;;;;;;3.20;1.73;;;4.50;54.90;;;;;;5075830;28;20198;-67
2024/02/26 06:17:25;;;;;;;2.85;1.50;;;4.60;55.00;;;;;;5075723;28;20185;-67
2024/02/26 06:19:52;;;;;;;4.35;1.60;;;4.60;55.00;;;;;;5071645;28;20202;-67
2024/02/26 06:22:20;;;;;;;4.20;1.80;;;4.70;55.00;;;;;;5074481;28;20201;-67
2024/02/26 06:24:47;;;;;;;3.33;1.90;;;4.70;55.00;;;;;;5075614;28;20344;-67
2024/02/26 06:27:14;;;;;;;2.55;1.05;;;4.80;55.00;;;;;;5067843;28;20232;-67
2024/02/26 06:29:41;;;;;;;2.70;1.10;;;4.80;55.00;;;;;;5075303;28;20289;-67
2024/02/26 06:32:08;;;;;;;3.67;1.70;;;4.80;54.70;;;;;;5071699;28;20586;-67
2024/02/26 06:34:35;;;;;;;3.00;1.27;;;4.80;54.50;;;;;;5075049;28;20225;-67
2024/02/26 06:37:03;;;;;;;3.47;1.45;;;4.90;54.90;;;;;;5073779;28;20273;-67
2024/02/26 06:39:32;;;;;;;4.75;1.75;;;4.90;55.00;;;;;;5075037;28;20193;-67
2024/02/26 06:42:00;;;;;;;3.03;1.80;;;4.90;55.00;;;;;;5073439;28;20218;-68
2024/02/26 06:44:31;;;;;;;2.75;1.25;;;5.00;54.40;;;;;;5074646;28;20678;-67
2024/02/26 06:46:59;;;;;;;3.65;1.48;;;5.10;54.40;;;;;;5074301;28;20179;-67
2024/02/26 06:49:26;;;;;;;2.50;1.17;;;5.10;54.50;;;;;;5075279;28;20186;-67
2024/02/26 06:51:53;;;;;;;4.45;1.92;;;5.10;54.30;;;;;;5074965;28;20230;-67
2024/02/26 06:54:20;;;;;;;4.35;2.50;;;5.10;54.40;;;;;;5074849;28;20247;-67
2024/02/26 06:56:48;;;;;;;3.55;2.47;;;5.10;54.60;;;;;;5074554;28;20214;-67
2024/02/26 06:59:15;;;;;;;3.85;2.63;;;5.20;54.70;;;;;;5074589;28;20277;-67
2024/02/26 07:01:43;;;;;;;5.13;1.63;;;5.20;54.90;;;;;;5074948;28;20229;-67
2024/02/26 07:04:10;;;;;;;4.13;2.10;;;5.20;55.40;;;;;;5074965;28;20228;-67
2024/02/26 07:06:38;;;;;;;3.22;2.33;;;5.20;55.50;;;;;;5074936;28;20216;-67
2024/02/26 07:09:05;;;;;;;4.60;3.13;;;5.30;55.70;;;;;;5074736;28;20190;-67
2024/02/26 07:11:31;;;;;;;3.88;2.90;;;5.40;55.60;;;;;;5074825;28;20186;-67
2024/02/26 07:14:01;;;;;;;6.97;4.07;;;5.50;55.40;;;;;;5074870;28;20518;-67
2024/02/26 07:16:28;;;;;;;5.90;4.43;;;5.60;55.40;;;;;;5074397;28;20285;-67
2024/02/26 07:18:55;;;;;;;5.25;4.20;;;5.60;55.00;;;;;;5073981;28;20248;-68
2024/02/26 07:21:22;;;;;;;7.10;2.72;;;5.70;55.00;;;;;;5072398;28;20194;-67
2024/02/26 07:23:48;;;;;;;4.63;2.85;;;5.80;55.50;;;;;;5074239;28;20704;-67
2024/02/26 07:26:17;;;;;;;6.43;3.55;;;5.80;55.40;;;;;;5073905;28;20221;-68
2024/02/26 07:28:44;;;;;;;5.68;2.70;;;5.90;55.20;;;;;;5073750;28;20637;-67
2024/02/26 07:31:12;;;;;;;5.53;3.22;;;5.90;55.30;;;;;;5074057;28;20229;-67
2024/02/26 07:33:39;;;;;;;4.80;3.10;;;6.00;55.60;;;;;;5073316;28;20228;-67
2024/02/26 07:36:07;;;;;;;5.88;2.80;;;6.00;55.50;;;;;;5073763;28;20190;-68
2024/02/26 07:38:34;;;;;;;5.70;3.20;;;6.10;55.30;;;;;;5074008;28;20198;-68
2024/02/26 07:41:02;;;;;;;5.15;3.13;;;6.10;54.90;;;;;;5073495;28;20221;-68
2024/02/26 07:43:29;;;;;;;6.35;3.63;;;6.10;54.70;;;;;;5070926;28;20221;-68
2024/02/26 07:45:56;;;;;;;6.75;2.92;;;6.20;54.70;;;;;;5073505;28;20293;-68
2024/02/26 07:48:24;;;;;;;4.68;2.13;;;6.40;54.00;;;;;;5073863;28;20194;-68
2024/02/26 07:50:51;;;;;;;3.75;2.13;;;6.40;53.20;;;;;;5073935;28;20275;-68
2024/02/26 07:53:18;;;;;;;4.85;2.83;;;6.50;53.40;;;;;;5073857;28;20233;-68
2024/02/26 07:55:45;;;;;;;2.95;2.10;;;6.70;53.10;;;;;;5073906;28;20198;-68
2024/02/26 07:58:12;;;;;;;4.55;2.55;;;6.70;52.80;;;;;;5073968;28;20186;-68
2024/02/26 08:00:39;;;;;;;4.93;2.20;;;6.90;52.90;;;;;;5073540;28;20289;-68
2024/02/26 08:03:06;;;;;;;5.43;2.35;;;7.10;52.20;;;;;;5073505;28;20505;-68
2024/02/26 08:05:34;;;;;;;6.30;3.40;;;7.20;52.10;;;;;;5073236;28;20727;-68
2024/02/26 08:08:01;;;;;;;10.27;7.05;;;7.30;52.20;;;;;;5073669;28;20189;-68
2024/02/26 08:10:28;;;;;;;7.70;4.47;;;7.60;53.00;;;;;;5073427;28;20641;-68
2024/02/26 08:12:56;;;;;;;7.07;3.05;;;7.90;52.70;;;;;;5073672;28;20249;-68
2024/02/26 08:15:23;;;;;;;6.85;3.40;;;8.10;51.60;;;;;;5073184;28;20198;-68
2024/02/26 08:17:50;;;;;;;5.25;3.50;;;8.10;50.90;;;;;;5073568;28;20247;-68
2024/02/26 08:20:18;;;;;;;4.40;3.03;;;8.10;50.50;;;;;;5073656;28;20197;-68
2024/02/26 08:22:47;;;;;;;6.20;3.15;;;8.10;50.70;;;;;;5072649;28;20194;-68
2024/02/26 08:25:15;;;;;;;4.88;3.30;;;8.10;50.70;;;;;;5072998;28;20297;-68
2024/02/26 08:27:43;;;;;;;4.88;3.22;;;8.10;50.60;;;;;;5073095;28;20191;-68
2024/02/26 08:30:13;;;;;;;4.28;2.92;;;8.00;50.80;;;;;;5073635;28;20194;-68
2024/02/26 08:32:40;;;;;;;5.05;3.28;;;8.00;50.80;;;;;;5073499;28;20189;-68
2024/02/26 08:35:07;;;;;;;5.47;3.78;;;7.90;50.70;;;;;;5073087;28;20244;-68
2024/02/26 08:37:35;;;;;;;5.13;3.47;;;7.80;50.60;;;;;;5073319;28;20190;-69
2024/02/26 08:40:04;;;;;;;6.55;3.33;;;7.80;51.00;;;;;;5073004;28;20229;-68
2024/02/26 08:42:31;;;;;;;5.53;3.28;;;7.80;51.60;;;;;;5072865;28;20310;-68
2024/02/26 08:45:00;;;;;;;4.60;3.00;;;7.80;52.50;;;;;;5073214;28;20228;-68
2024/02/26 08:47:28;;;;;;;4.28;2.20;;;7.80;52.30;;;;;;5072874;28;20197;-68
2024/02/26 08:49:55;;;;;;;5.18;2.75;;;7.90;52.70;;;;;;5072824;28;20263;-68
2024/02/26 08:52:23;;;;;;;3.63;2.28;;;7.90;52.50;;;;;;5072950;28;20212;-68
2024/02/26 08:54:50;;;;;;;3.10;1.90;;;8.00;52.60;;;;;;5073346;28;20248;-68
2024/02/26 08:57:18;;;;;;;2.83;1.70;;;8.10;52.50;;;;;;5072826;28;20625;-68
2024/02/26 08:59:45;;;;;;;6.07;1.63;;;8.20;52.90;;;;;;5072980;28;20229;-68
2024/02/26 09:02:12;;;;;;;4.35;2.08;;;8.30;52.40;;;;;;5072934;28;20224;-68
2024/02/26 09:04:39;;;;;;;3.30;1.92;;;8.50;52.90;;;;;;5072731;28;20190;-68
2024/02/26 09:07:07;;;;;;;4.65;2.05;;;8.60;53.00;;;;;;5072949;28;20213;-68
2024/02/26 09:09:34;;;;;;;4.85;1.70;;;8.80;52.50;;;;;;5072984;28;20202;-68
2024/02/26 09:12:01;;;;;;;3.20;1.90;;;9.00;52.10;;;;;;5071028;28;20278;-68
2024/02/26 09:14:29;;;;;;;3.55;2.17;;;9.20;52.00;;;;;;5072901;28;20375;-68
2024/02/26 09:16:56;;;;;;;3.17;2.15;;;9.30;51.80;;;;;;5072974;28;20229;-68
2024/02/26 09:19:25;;;;;;;4.55;2.50;;;9.30;51.40;;;;;;5072895;28;20277;-68
2024/02/26 09:21:53;;;;;;;4.45;2.20;;;9.40;50.60;;;;;;5072564;28;20194;-68
2024/02/26 09:24:20;;;;;;;3.78;1.95;;;9.50;49.90;;;;;;5072796;28;20194;-68
2024/02/26 09:26:47;;;;;;;3.63;2.13;;;9.40;49.00;;;;;;5072862;28;20210;-68
2024/02/26 09:29:14;;;;;;;3.20;1.90;;;9.50;49.00;;;;;;5073042;28;20285;-68
2024/02/26 09:31:43;;;;;;;2.80;1.65;;;9.60;48.70;;;;;;5072783;28;20194;-68
2024/02/26 09:34:10;;;;;;;3.25;1.80;;;9.70;47.80;;;;;;5076585;28;20612;-68
2024/02/26 09:36:37;;;;;;;3.60;2.13;;;9.80;47.60;;;;;;5076069;28;20229;-68
2024/02/26 09:39:04;;;;;;;4.15;1.90;;;9.80;47.40;;;;;;5076682;28;20226;-68
2024/02/26 09:41:32;;;;;;;3.58;2.50;;;9.80;47.50;;;;;;5076458;28;20218;-68
2024/02/26 09:44:00;;;;;;;3.35;2.33;;;9.80;47.60;;;;;;5076784;28;20228;-68
2024/02/26 09:46:27;;;;;;;4.40;2.40;;;9.90;47.70;;;;;;5076636;28;20601;-68
2024/02/26 09:48:55;;;;;;;4.10;2.45;;;10.00;47.00;;;;;;5076500;28;20190;-68
2024/02/26 09:51:24;;;;;;;6.20;2.20;;;10.10;47.30;;;;;;5076474;28;20201;-68
2024/02/26 09:53:52;;;;;;;2.95;2.10;;;10.40;48.20;;;;;;5076092;28;20192;-68
2024/02/26 09:56:20;;;;;;;5.13;3.33;;;10.90;48.20;;;;;;5075986;28;20676;-68
2024/02/26 09:58:51;;;;;;;4.35;2.58;;;11.40;47.40;;;;;;5075996;28;20644;-69
2024/02/26 10:01:20;;;;;;;4.47;2.95;;;11.80;46.70;;;;;;5076238;28;20198;-68
2024/02/26 10:03:53;;;;;;;6.28;2.75;;;12.10;46.50;;;;;;5075905;28;20189;-69
2024/02/26 10:06:22;;;;;;;5.17;3.53;;;12.40;46.40;;;;;;5076428;28;20270;-69
2024/02/26 10:08:49;;;;;;;6.10;2.70;;;12.50;45.50;;;;;;5076130;28;20813;-69
2024/02/26 10:11:16;;;;;;;4.67;2.90;;;12.50;44.90;;;;;;5076128;28;20919;-69
2024/02/26 10:13:43;;;;;;;7.93;2.77;;;12.50;44.50;;;;;;5075946;28;20460;-68
2024/02/26 10:16:10;;;;;;;5.00;2.80;;;12.50;44.80;;;;;;5075996;28;20479;-68
2024/02/26 10:18:47;;;;;;;10.53;3.50;;;12.50;44.90;;;;;;5075864;28;20527;-68
2024/02/26 10:21:17;;;;;;;5.80;2.90;;;12.50;44.90;;;;;;5075575;28;20451;-68
2024/02/26 10:23:47;;;;;;;4.17;2.60;;;12.40;45.00;;;;;;5075527;28;20495;-69
2024/02/26 10:26:14;;;;;;;4.57;2.70;;;12.40;45.20;;;;;;5075831;28;20902;-69
2024/02/26 10:28:44;;;;;;;6.83;2.57;;;12.40;45.20;;;;;;5075776;28;20451;-69
2024/02/26 10:31:13;;;;;;;4.47;2.87;;;12.40;45.50;;;;;;5077956;28;20440;-69
2024/02/26 10:33:40;;;;;;;5.73;3.10;;;12.50;46.20;;;;;;5077760;28;20444;-69
2024/02/26 10:36:09;;;;;;;6.20;3.20;;;12.50;46.70;;;;;;5075753;28;20436;-68
2024/02/26 10:38:37;;;;;;;6.57;3.90;;;12.60;47.00;;;;;;5075754;28;20478;-69
2024/02/26 10:41:06;;;;;;;7.37;2.70;;;12.80;46.60;;;;;;5076662;28;20847;-68
2024/02/26 10:43:34;;;;;;;4.10;3.10;;;13.00;46.70;;;;;;5075901;28;20436;-69
2024/02/26 10:46:01;;;;;;;4.53;2.80;;;13.10;46.40;;;;;;5074950;28;20499;-68
2024/02/26 10:48:28;;;;;;;5.80;3.37;;;13.30;46.60;;;;;;5075585;28;20922;-69
2024/02/26 10:50:57;;;;;;;8.23;3.13;;;13.40;46.60;;;;;;5075655;28;20443;-69
2024/02/26 10:53:26;;;;;;;5.67;2.70;;;13.60;46.70;;;;;;5073313;28;20922;-69
2024/02/26 10:55:59;;;;;;;4.40;2.97;;;13.80;46.50;;;;;;5075284;28;20789;-69
2024/02/26 10:58:29;;;;;;;8.63;3.33;;;14.30;46.70;;;;;;5075378;28;20507;-69
2024/02/26 11:00:58;;;;;;;7.60;3.03;;;14.90;46.10;;;;;;5076870;28;20424;-69
2024/02/26 11:03:26;;;;;;;5.97;3.00;;;15.60;45.20;;;;;;5074898;28;20937;-69
2024/02/26 11:05:53;;;;;;;3.90;2.23;;;16.20;43.80;;;;;;5074369;28;21059;-69
2024/02/26 11:08:21;;;;;;;3.47;2.30;;;16.70;43.80;;;;;;5074336;28;20513;-69
2024/02/26 11:10:49;;;;;;;5.23;2.23;;;17.30;43.60;;;;;;5074677;28;20439;-69
2024/02/26 11:13:20;;;;;;;3.73;2.37;;;17.90;42.10;;;;;;5074835;28;20433;-69
2024/02/26 11:15:51;;;;;;;4.60;2.33;;;18.40;40.70;;;;;;5074574;28;20963;-67
2024/02/26 11:18:19;;;;;;;5.43;2.30;;;19.00;40.80;;;;;;5074885;28;20425;-68
2024/02/26 11:20:49;;;;;;;3.40;1.93;;;19.60;40.70;;;;;;5074726;28;20493;-68
2024/02/26 11:23:16;;;;;;;6.03;2.33;;;20.20;39.70;;;;;;5074634;28;20524;-68
2024/02/26 11:25:43;;;;;;;3.60;2.20;;;20.90;37.80;;;;;;5074601;28;20436;-68
2024/02/26 11:28:13;;;;;;;5.87;2.73;;;21.80;36.50;;;;;;5074596;28;20485;-68
2024/02/26 11:30:45;;;;;;;5.70;2.60;;;22.70;35.20;;;;;;5074082;28;20523;-69
2024/02/26 11:33:15;;;;;;;3.07;1.80;;;23.40;33.30;;;;;;5074127;28;20455;-68
2024/02/26 11:35:42;;;;;;;4.07;1.80;;;23.90;29.90;;;;;;5073823;28;20531;-68
2024/02/26 11:38:09;;;;;;;5.53;2.40;;;24.30;29.50;;;;;;5073840;28;20825;-68
2024/02/26 11:40:41;;;;;;;3.20;1.90;;;24.70;29.30;;;;;;5074145;28;20535;-68
2024/02/26 11:43:07;;;;;;;3.73;1.93;;;25.20;27.50;;;;;;5073838;28;20524;-69
2024/02/26 11:45:52;;;;;;;2.97;1.33;;;25.50;26.30;;;;;;5073111;28;20527;-68
2024/02/26 11:48:25;;;;;;;2.97;1.50;;;25.70;24.30;;;;;;5074024;28;20423;-68
2024/02/26 11:50:53;;;;;;;5.07;1.10;;;25.60;24.70;;;;;;5074194;28;20460;-68
2024/02/26 11:53:22;;;;;;;3.17;1.40;;;25.30;23.80;;;;;;5073773;28;20932;-68
2024/02/26 11:55:49;;;;;;;4.00;1.37;;;25.20;24.70;;;;;;5073361;28;20440;-68
2024/02/26 11:58:16;;;;;;;5.60;1.90;;;25.40;24.70;;;;;;5074085;28;20790;-68
2024/02/26 12:00:44;;;;;;;3.80;1.90;;;25.50;24.80;;;;;;5073960;28;20432;-68
2024/02/26 12:03:12;;;;;;;3.13;1.37;;;25.50;24.80;;;;;;5073345;28;20511;-68
2024/02/26 12:05:40;;;;;;;6.37;2.17;;;25.60;24.50;;;;;;5073518;28;20439;-68
2024/02/26 12:08:08;;;;;;;3.23;1.20;;;25.90;23.00;;;;;;5073535;28;20563;-68
2024/02/26 12:10:38;;;;;;;2.70;0.90;;;26.20;22.60;;;;;;5073367;28;20957;-69
2024/02/26 12:13:08;;;;;;;2.60;0.93;;;26.20;22.10;;;;;;5073449;28;20436;-68
2024/02/26 12:15:38;;;;;;;2.43;0.90;;;25.90;21.90;;;;;;5073808;28;20451;-68
2024/02/26 12:18:07;;;;;;;3.23;0.90;;;25.50;22.10;;;;;;5074277;28;20472;-68
2024/02/26 12:20:35;;;;;;;2.27;0.67;;;25.40;23.20;;;;;;5073742;28;20436;-68
2024/02/26 12:23:04;;;;;;;2.00;0.70;;;25.60;23.50;;;;;;5073585;28;20518;-68
2024/02/26 12:25:43;;;;;;;2.70;0.70;;;25.90;23.80;;;;;;5073630;28;20438;-69
2024/02/26 12:28:10;;;;;;;2.20;0.70;;;26.20;21.90;;;;;;5073759;28;20464;-68
2024/02/26 12:30:37;;;;;;;1.90;0.50;;;26.60;21.50;;;;;;5073562;28;20463;-68
2024/02/26 12:33:06;;;;;;;1.80;0.50;;;26.70;20.10;;;;;;5073367;28;20511;-68
2024/02/26 12:35:33;;;;;;;2.10;0.60;;;26.60;20.10;;;;;;5073413;28;20443;-68
2024/02/26 12:38:00;;;;;;;2.10;0.50;;;26.40;19.00;;;;;;5073303;28;20839;-68
2024/02/26 12:40:29;;;;;;;3.40;0.50;;;26.20;19.50;;;;;;5073169;28;20519;-68
2024/02/26 12:42:56;;;;;;;1.80;0.57;;;25.80;19.40;;;;;;5072991;28;20547;-68
2024/02/26 12:45:24;;;;;;;2.07;0.70;;;25.30;19.80;;;;;;5073320;28;20428;-68
2024/02/26 12:47:51;;;;;;;2.30;0.60;;;24.70;19.70;;;;;;5072989;28;20475;-68
2024/02/26 12:50:18;;;;;;;1.90;0.53;;;24.00;20.10;;;;;;5072941;28;20468;-68
2024/02/26 12:52:46;;;;;;;3.00;0.70;;;23.40;20.90;;;;;;5072990;28;20436;-68
2024/02/26 12:55:15;;;;;;;2.37;0.60;;;22.80;21.10;;;;;;5072831;28;20520;-68
2024/02/26 12:57:45;;;;;;;2.30;0.60;;;22.20;21.90;;;;;;5073354;28;20431;-68